sensor_id;sensor_type;location;lat;lon;timestamp;temperature;humidity
14359;DHT22;7263;49.418;11.064;2023-05-02T00:03:36;6.80;99.90
14359;DHT22;7263;49.418;11.064;2023-05-02T00:06:09;6.80;99.90
14359;DHT22;7263;49.418;11.064;2023-05-02T00:08:41;6.80;99.90
14359;DHT22;7263;49.418;11.064;2023-05-02T00:11:12;6.70;99.90
14359;DHT22;7263;49.418;11.064;2023-05-02T00:16:15;6.60;99.90
14359;DHT22;7263;49.418;11.064;2023-05-02T00:18:42;6.50;99.90
14359;DHT22;7263;49.418;11.064;2023-05-02T00:23:42;6.50;99.90
14359;DHT22;7263;49.418;11.064;2023-05-02T00:31:12;6.30;99.90
14359;DHT22;7263;49.418;11.064;2023-05-02T00:36:13;6.30;99.90
14359;DHT22;7263;49.418;11.064;2023-05-02T00:38:43;6.20;99.90
14359;DHT22;7263;49.418;11.064;2023-05-02T00:48:37;6.10;99.90
14359;DHT22;7263;49.418;11.064;2023-05-02T00:56:01;6.00;99.90
14359;DHT22;7263;49.418;11.064;2023-05-02T01:01:07;5.90;99.90
14359;DHT22;7263;49.418;11.064;2023-05-02T01:03:58;5.90;99.90
14359;DHT22;7263;49.418;11.064;2023-05-02T01:06:35;5.90;99.90
14359;DHT22;7263;49.418;11.064;2023-05-02T01:09:17;5.90;99.90
14359;DHT22;7263;49.418;11.064;2023-05-02T01:12:00;5.90;99.90
14359;DHT22;7263;49.418;11.064;2023-05-02T01:14:30;5.90;99.90
14359;DHT22;7263;49.418;11.064;2023-05-02T01:17:01;5.90;99.90
14359;DHT22;7263;49.418;11.064;2023-05-02T01:22:10;5.90;99.90
14359;DHT22;7263;49.418;11.064;2023-05-02T01:24:47;5.90;99.90
14359;DHT22;7263;49.418;11.064;2023-05-02T01:27:35;5.90;99.90
14359;DHT22;7263;49.418;11.064;2023-05-02T01:30:08;5.90;99.90
14359;DHT22;7263;49.418;11.064;2023-05-02T01:37:38;5.90;99.90
14359;DHT22;7263;49.418;11.064;2023-05-02T01:40:13;6.00;99.90
14359;DHT22;7263;49.418;11.064;2023-05-02T01:50:17;6.00;99.90
14359;DHT22;7263;49.418;11.064;2023-05-02T01:55:14;5.90;99.90
14359;DHT22;7263;49.418;11.064;2023-05-02T02:05:17;5.90;99.90
14359;DHT22;7263;49.418;11.064;2023-05-02T02:15:19;5.90;99.90
14359;DHT22;7263;49.418;11.064;2023-05-02T02:17:57;5.80;99.90
14359;DHT22;7263;49.418;11.064;2023-05-02T02:25:27;5.90;99.90
14359;DHT22;7263;49.418;11.064;2023-05-02T02:28:00;5.90;99.90
14359;DHT22;7263;49.418;11.064;2023-05-02T02:30:29;5.90;99.90
14359;DHT22;7263;49.418;11.064;2023-05-02T02:35:37;5.90;99.90
14359;DHT22;7263;49.418;11.064;2023-05-02T02:38:13;5.80;99.90
14359;DHT22;7263;49.418;11.064;2023-05-02T02:40:59;5.90;99.90
14359;DHT22;7263;49.418;11.064;2023-05-02T02:43:35;5.80;99.90
14359;DHT22;7263;49.418;11.064;2023-05-02T02:46:15;5.80;99.90
14359;DHT22;7263;49.418;11.064;2023-05-02T02:48:52;5.90;99.90
14359;DHT22;7263;49.418;11.064;2023-05-02T02:53:58;5.90;99.90
14359;DHT22;7263;49.418;11.064;2023-05-02T02:59:11;5.80;99.90
14359;DHT22;7263;49.418;11.064;2023-05-02T03:01:50;5.80;99.90
14359;DHT22;7263;49.418;11.064;2023-05-02T03:06:58;5.70;99.90
14359;DHT22;7263;49.418;11.064;2023-05-02T03:14:30;5.70;99.90
14359;DHT22;7263;49.418;11.064;2023-05-02T03:17:04;5.60;99.90
14359;DHT22;7263;49.418;11.064;2023-05-02T03:24:29;5.50;99.90
14359;DHT22;7263;49.418;11.064;2023-05-02T03:29:31;5.40;99.90
14359;DHT22;7263;49.418;11.064;2023-05-02T03:32:05;5.40;99.90
14359;DHT22;7263;49.418;11.064;2023-05-02T03:34:37;5.40;99.90
14359;DHT22;7263;49.418;11.064;2023-05-02T03:37:17;5.50;99.90
14359;DHT22;7263;49.418;11.064;2023-05-02T03:42:20;5.70;99.90
14359;DHT22;7263;49.418;11.064;2023-05-02T03:44:53;5.70;99.90
14359;DHT22;7263;49.418;11.064;2023-05-02T03:47:27;5.70;99.90
14359;DHT22;7263;49.418;11.064;2023-05-02T03:52:24;5.60;99.90
14359;DHT22;7263;49.418;11.064;2023-05-02T03:57:29;5.60;99.90
14359;DHT22;7263;49.418;11.064;2023-05-02T04:02:24;5.50;99.90
14359;DHT22;7263;49.418;11.064;2023-05-02T04:14:57;5.60;99.90
14359;DHT22;7263;49.418;11.064;2023-05-02T04:17:28;5.70;99.90
14359;DHT22;7263;49.418;11.064;2023-05-02T04:19:55;5.80;99.90
14359;DHT22;7263;49.418;11.064;2023-05-02T04:22:22;5.90;99.90
14359;DHT22;7263;49.418;11.064;2023-05-02T04:27:29;6.10;99.90
14359;DHT22;7263;49.418;11.064;2023-05-02T04:34:52;6.30;99.90
14359;DHT22;7263;49.418;11.064;2023-05-02T04:37:22;6.40;99.90
14359;DHT22;7263;49.418;11.064;2023-05-02T04:42:22;6.60;99.90
14359;DHT22;7263;49.418;11.064;2023-05-02T04:50:02;6.90;99.90
14359;DHT22;7263;49.418;11.064;2023-05-02T04:52:35;6.90;99.90
14359;DHT22;7263;49.418;11.064;2023-05-02T04:55:03;7.10;99.90
14359;DHT22;7263;49.418;11.064;2023-05-02T04:57:32;7.10;99.90
14359;DHT22;7263;49.418;11.064;2023-05-02T04:59:59;7.20;99.90
14359;DHT22;7263;49.418;11.064;2023-05-02T05:02:30;7.40;99.90
14359;DHT22;7263;49.418;11.064;2023-05-02T05:05:00;7.40;99.90
14359;DHT22;7263;49.418;11.064;2023-05-02T05:12:23;7.60;99.90
14359;DHT22;7263;49.418;11.064;2023-05-02T05:14:54;7.60;99.90
14359;DHT22;7263;49.418;11.064;2023-05-02T05:17:26;7.60;99.90
14359;DHT22;7263;49.418;11.064;2023-05-02T05:22:22;7.70;99.90
14359;DHT22;7263;49.418;11.064;2023-05-02T05:24:54;7.90;99.90
14359;DHT22;7263;49.418;11.064;2023-05-02T05:32:22;8.00;99.90
14359;DHT22;7263;49.418;11.064;2023-05-02T05:37:23;8.20;99.90
14359;DHT22;7263;49.418;11.064;2023-05-02T05:42:20;8.40;99.90
14359;DHT22;7263;49.418;11.064;2023-05-02T05:47:18;8.80;99.90
14359;DHT22;7263;49.418;11.064;2023-05-02T05:49:51;9.60;99.90
14359;DHT22;7263;49.418;11.064;2023-05-02T05:54:53;8.80;99.90
14359;DHT22;7263;49.418;11.064;2023-05-02T05:59:50;9.20;99.90
14359;DHT22;7263;49.418;11.064;2023-05-02T06:02:17;9.30;99.90
14359;DHT22;7263;49.418;11.064;2023-05-02T06:12:22;9.50;99.90
14359;DHT22;7263;49.418;11.064;2023-05-02T06:19:44;9.50;99.90
14359;DHT22;7263;49.418;11.064;2023-05-02T06:24:41;9.60;99.90
14359;DHT22;7263;49.418;11.064;2023-05-02T06:27:12;9.70;99.90
14359;DHT22;7263;49.418;11.064;2023-05-02T06:32:07;9.70;99.90
14359;DHT22;7263;49.418;11.064;2023-05-02T06:44:25;10.10;99.90
14359;DHT22;7263;49.418;11.064;2023-05-02T06:46:52;10.10;99.90
14359;DHT22;7263;49.418;11.064;2023-05-02T06:49:21;10.10;99.90
14359;DHT22;7263;49.418;11.064;2023-05-02T06:51:52;10.20;99.90
14359;DHT22;7263;49.418;11.064;2023-05-02T06:59:22;10.40;99.90
14359;DHT22;7263;49.418;11.064;2023-05-02T07:01:53;10.50;99.90
14359;DHT22;7263;49.418;11.064;2023-05-02T07:04:19;10.60;99.90
14359;DHT22;7263;49.418;11.064;2023-05-02T07:06:49;10.70;99.90
14359;DHT22;7263;49.418;11.064;2023-05-02T07:09:19;10.70;99.90
14359;DHT22;7263;49.418;11.064;2023-05-02T07:14:16;10.80;99.90
14359;DHT22;7263;49.418;11.064;2023-05-02T07:16:43;10.80;99.90
14359;DHT22;7263;49.418;11.064;2023-05-02T07:19:13;10.90;99.90
14359;DHT22;7263;49.418;11.064;2023-05-02T07:21:44;10.90;99.90
14359;DHT22;7263;49.418;11.064;2023-05-02T07:26:38;11.00;99.90
14359;DHT22;7263;49.418;11.064;2023-05-02T07:31:38;11.10;99.90
14359;DHT22;7263;49.418;11.064;2023-05-02T07:34:07;11.20;99.90
14359;DHT22;7263;49.418;11.064;2023-05-02T07:36:35;11.20;99.90
14359;DHT22;7263;49.418;11.064;2023-05-02T07:39:05;11.30;99.90
14359;DHT22;7263;49.418;11.064;2023-05-02T07:41:41;11.30;99.90
14359;DHT22;7263;49.418;11.064;2023-05-02T07:44:08;11.40;99.90
14359;DHT22;7263;49.418;11.064;2023-05-02T07:46:39;11.60;99.90
14359;DHT22;7263;49.418;11.064;2023-05-02T07:49:06;11.70;99.90
14359;DHT22;7263;49.418;11.064;2023-05-02T07:51:40;11.80;99.90
14359;DHT22;7263;49.418;11.064;2023-05-02T07:54:16;11.90;99.90
14359;DHT22;7263;49.418;11.064;2023-05-02T07:56:47;11.90;99.90
14359;DHT22;7263;49.418;11.064;2023-05-02T07:59:14;12.00;99.90
14359;DHT22;7263;49.418;11.064;2023-05-02T08:01:49;11.90;99.90
14359;DHT22;7263;49.418;11.064;2023-05-02T08:04:17;11.80;99.90
14359;DHT22;7263;49.418;11.064;2023-05-02T08:06:45;11.70;99.90
14359;DHT22;7263;49.418;11.064;2023-05-02T08:09:15;11.50;99.90
14359;DHT22;7263;49.418;11.064;2023-05-02T08:11:45;11.40;99.90
14359;DHT22;7263;49.418;11.064;2023-05-02T08:14:17;11.10;99.90
14359;DHT22;7263;49.418;11.064;2023-05-02T08:19:17;10.90;99.90
14359;DHT22;7263;49.418;11.064;2023-05-02T08:21:46;10.70;99.90
14359;DHT22;7263;49.418;11.064;2023-05-02T08:26:47;10.60;99.90
14359;DHT22;7263;49.418;11.064;2023-05-02T08:31:47;10.50;99.90
14359;DHT22;7263;49.418;11.064;2023-05-02T08:34:17;10.50;99.90
14359;DHT22;7263;49.418;11.064;2023-05-02T08:36:47;10.50;99.90
14359;DHT22;7263;49.418;11.064;2023-05-02T08:41:44;10.60;99.90
14359;DHT22;7263;49.418;11.064;2023-05-02T08:44:22;10.70;99.90
14359;DHT22;7263;49.418;11.064;2023-05-02T08:46:56;10.70;99.90
14359;DHT22;7263;49.418;11.064;2023-05-02T08:49:24;10.80;99.90
14359;DHT22;7263;49.418;11.064;2023-05-02T08:51:54;10.90;99.90
14359;DHT22;7263;49.418;11.064;2023-05-02T08:54:23;11.10;99.90
14359;DHT22;7263;49.418;11.064;2023-05-02T08:56:52;11.40;99.90
14359;DHT22;7263;49.418;11.064;2023-05-02T08:59:19;11.70;99.90
14359;DHT22;7263;49.418;11.064;2023-05-02T09:01:58;11.70;99.90
14359;DHT22;7263;49.418;11.064;2023-05-02T09:04:30;12.50;99.90
14359;DHT22;7263;49.418;11.064;2023-05-02T09:07:01;12.60;99.90
14359;DHT22;7263;49.418;11.064;2023-05-02T09:09:32;13.10;99.90
14359;DHT22;7263;49.418;11.064;2023-05-02T09:11:59;13.40;99.90
14359;DHT22;7263;49.418;11.064;2023-05-02T09:14:27;13.70;99.90
14359;DHT22;7263;49.418;11.064;2023-05-02T09:16:57;13.90;99.90
14359;DHT22;7263;49.418;11.064;2023-05-02T09:19:25;16.80;99.90
14359;DHT22;7263;49.418;11.064;2023-05-02T09:22:06;14.90;99.90
14359;DHT22;7263;49.418;11.064;2023-05-02T09:24:34;15.80;99.90
14359;DHT22;7263;49.418;11.064;2023-05-02T09:27:04;15.90;99.90
14359;DHT22;7263;49.418;11.064;2023-05-02T09:29:34;16.30;99.90
14359;DHT22;7263;49.418;11.064;2023-05-02T09:32:05;16.60;99.90
14359;DHT22;7263;49.418;11.064;2023-05-02T09:34:33;17.20;99.90
14359;DHT22;7263;49.418;11.064;2023-05-02T09:37:03;17.40;99.90
14359;DHT22;7263;49.418;11.064;2023-05-02T09:39:30;17.80;99.90
14359;DHT22;7263;49.418;11.064;2023-05-02T09:41:58;18.10;99.90
14359;DHT22;7263;49.418;11.064;2023-05-02T09:44:26;18.70;99.90
14359;DHT22;7263;49.418;11.064;2023-05-02T09:46:56;18.80;99.90
14359;DHT22;7263;49.418;11.064;2023-05-02T09:49:38;19.10;99.90
14359;DHT22;7263;49.418;11.064;2023-05-02T09:52:14;19.50;99.90
14359;DHT22;7263;49.418;11.064;2023-05-02T09:54:41;20.10;99.90
14359;DHT22;7263;49.418;11.064;2023-05-02T09:57:16;20.30;99.90
14359;DHT22;7263;49.418;11.064;2023-05-02T09:59:55;20.30;99.90
14359;DHT22;7263;49.418;11.064;2023-05-02T10:02:29;20.30;99.90
14359;DHT22;7263;49.418;11.064;2023-05-02T10:04:57;20.30;99.90
14359;DHT22;7263;49.418;11.064;2023-05-02T10:07:26;20.50;99.90
14359;DHT22;7263;49.418;11.064;2023-05-02T10:09:53;20.10;99.90
14359;DHT22;7263;49.418;11.064;2023-05-02T10:12:25;19.60;99.90
14359;DHT22;7263;49.418;11.064;2023-05-02T10:14:56;19.30;99.90
14359;DHT22;7263;49.418;11.064;2023-05-02T10:17:38;19.10;99.90
14359;DHT22;7263;49.418;11.064;2023-05-02T10:20:07;19.20;99.90
14359;DHT22;7263;49.418;11.064;2023-05-02T10:22:50;19.40;99.90
14359;DHT22;7263;49.418;11.064;2023-05-02T10:25:21;19.40;99.90
14359;DHT22;7263;49.418;11.064;2023-05-02T10:27:51;19.40;99.90
14359;DHT22;7263;49.418;11.064;2023-05-02T10:30:18;19.30;99.90
14359;DHT22;7263;49.418;11.064;2023-05-02T10:32:47;19.30;99.90
14359;DHT22;7263;49.418;11.064;2023-05-02T10:35:15;19.40;99.90
14359;DHT22;7263;49.418;11.064;2023-05-02T10:37:44;19.20;99.90
14359;DHT22;7263;49.418;11.064;2023-05-02T10:40:12;19.10;99.90
14359;DHT22;7263;49.418;11.064;2023-05-02T10:42:44;19.20;99.90
14359;DHT22;7263;49.418;11.064;2023-05-02T10:45:30;19.30;99.90
14359;DHT22;7263;49.418;11.064;2023-05-02T10:48:16;19.30;99.90
14359;DHT22;7263;49.418;11.064;2023-05-02T10:50:45;19.60;99.90
14359;DHT22;7263;49.418;11.064;2023-05-02T10:53:25;19.50;99.90
14359;DHT22;7263;49.418;11.064;2023-05-02T10:58:52;20.40;99.90
14359;DHT22;7263;49.418;11.064;2023-05-02T11:01:37;20.70;99.90
14359;DHT22;7263;49.418;11.064;2023-05-02T11:04:11;20.70;99.90
14359;DHT22;7263;49.418;11.064;2023-05-02T11:09:55;20.30;99.90
14359;DHT22;7263;49.418;11.064;2023-05-02T11:12:43;20.40;99.90
14359;DHT22;7263;49.418;11.064;2023-05-02T11:15:17;20.90;99.90
14359;DHT22;7263;49.418;11.064;2023-05-02T11:18:07;21.00;99.90
14359;DHT22;7263;49.418;11.064;2023-05-02T11:20:38;20.70;99.90
14359;DHT22;7263;49.418;11.064;2023-05-02T11:23:26;20.70;99.90
14359;DHT22;7263;49.418;11.064;2023-05-02T11:25:56;20.60;99.90
14359;DHT22;7263;49.418;11.064;2023-05-02T11:28:42;20.60;99.90
14359;DHT22;7263;49.418;11.064;2023-05-02T11:34:13;20.80;99.90
14359;DHT22;7263;49.418;11.064;2023-05-02T11:36:40;20.80;99.90
14359;DHT22;7263;49.418;11.064;2023-05-02T11:39:18;21.00;99.90
14359;DHT22;7263;49.418;11.064;2023-05-02T11:41:45;20.80;99.90
14359;DHT22;7263;49.418;11.064;2023-05-02T11:44:12;20.40;99.90
14359;DHT22;7263;49.418;11.064;2023-05-02T11:46:41;20.40;99.90
14359;DHT22;7263;49.418;11.064;2023-05-02T11:49:09;20.20;99.90
14359;DHT22;7263;49.418;11.064;2023-05-02T11:51:39;20.10;99.90
14359;DHT22;7263;49.418;11.064;2023-05-02T11:54:17;19.90;99.90
14359;DHT22;7263;49.418;11.064;2023-05-02T11:56:47;19.70;99.90
14359;DHT22;7263;49.418;11.064;2023-05-02T11:59:14;19.70;99.90
14359;DHT22;7263;49.418;11.064;2023-05-02T12:01:46;18.90;99.90
14359;DHT22;7263;49.418;11.064;2023-05-02T12:04:27;19.40;99.90
14359;DHT22;7263;49.418;11.064;2023-05-02T12:06:56;19.40;99.90
14359;DHT22;7263;49.418;11.064;2023-05-02T12:09:23;19.10;99.90
14359;DHT22;7263;49.418;11.064;2023-05-02T12:11:53;18.20;99.90
14359;DHT22;7263;49.418;11.064;2023-05-02T12:14:29;16.00;99.90
14359;DHT22;7263;49.418;11.064;2023-05-02T12:17:02;17.40;99.90
14359;DHT22;7263;49.418;11.064;2023-05-02T12:19:35;17.10;99.90
14359;DHT22;7263;49.418;11.064;2023-05-02T12:22:02;16.90;99.90
14359;DHT22;7263;49.418;11.064;2023-05-02T12:24:29;16.80;99.90
14359;DHT22;7263;49.418;11.064;2023-05-02T12:27:12;16.90;99.90
14359;DHT22;7263;49.418;11.064;2023-05-02T12:29:40;17.10;99.90
14359;DHT22;7263;49.418;11.064;2023-05-02T12:32:26;17.50;99.90
14359;DHT22;7263;49.418;11.064;2023-05-02T12:35:00;17.80;99.90
14359;DHT22;7263;49.418;11.064;2023-05-02T12:37:35;18.20;99.90
14359;DHT22;7263;49.418;11.064;2023-05-02T12:40:14;18.30;99.90
14359;DHT22;7263;49.418;11.064;2023-05-02T12:42:41;18.20;99.90
14359;DHT22;7263;49.418;11.064;2023-05-02T12:45:16;18.20;99.90
14359;DHT22;7263;49.418;11.064;2023-05-02T12:47:45;18.00;99.90
14359;DHT22;7263;49.418;11.064;2023-05-02T12:50:16;17.80;99.90
14359;DHT22;7263;49.418;11.064;2023-05-02T12:52:47;17.40;99.90
14359;DHT22;7263;49.418;11.064;2023-05-02T12:55:14;17.20;99.90
14359;DHT22;7263;49.418;11.064;2023-05-02T12:57:42;17.10;99.90
14359;DHT22;7263;49.418;11.064;2023-05-02T13:00:12;16.70;99.90
14359;DHT22;7263;49.418;11.064;2023-05-02T13:05:18;15.80;99.90
14359;DHT22;7263;49.418;11.064;2023-05-02T13:12:45;14.30;99.90
14359;DHT22;7263;49.418;11.064;2023-05-02T13:15:15;14.00;99.90
14359;DHT22;7263;49.418;11.064;2023-05-02T13:17:42;13.70;99.90
14359;DHT22;7263;49.418;11.064;2023-05-02T13:22:40;13.20;99.90
14359;DHT22;7263;49.418;11.064;2023-05-02T13:25:08;13.00;99.90
14359;DHT22;7263;49.418;11.064;2023-05-02T13:27:34;12.80;99.90
14359;DHT22;7263;49.418;11.064;2023-05-02T13:35:01;12.40;99.90
14359;DHT22;7263;49.418;11.064;2023-05-02T13:40:09;12.10;99.90
14359;DHT22;7263;49.418;11.064;2023-05-02T13:42:52;12.00;99.90
14359;DHT22;7263;49.418;11.064;2023-05-02T13:45:22;12.00;99.90
14359;DHT22;7263;49.418;11.064;2023-05-02T13:52:52;11.80;99.90
14359;DHT22;7263;49.418;11.064;2023-05-02T13:55:20;11.80;99.90
14359;DHT22;7263;49.418;11.064;2023-05-02T13:57:47;11.80;99.90
14359;DHT22;7263;49.418;11.064;2023-05-02T14:10:06;12.30;99.90
14359;DHT22;7263;49.418;11.064;2023-05-02T14:12:37;12.50;99.90
14359;DHT22;7263;49.418;11.064;2023-05-02T14:20:08;12.60;99.90
14359;DHT22;7263;49.418;11.064;2023-05-02T14:22:37;12.70;99.90
14359;DHT22;7263;49.418;11.064;2023-05-02T14:25:07;12.70;99.90
14359;DHT22;7263;49.418;11.064;2023-05-02T14:27:37;12.80;99.90
14359;DHT22;7263;49.418;11.064;2023-05-02T14:30:14;12.90;99.90
14359;DHT22;7263;49.418;11.064;2023-05-02T14:32:46;12.90;99.90
14359;DHT22;7263;49.418;11.064;2023-05-02T14:37:54;13.00;99.90
14359;DHT22;7263;49.418;11.064;2023-05-02T14:40:23;13.00;99.90
14359;DHT22;7263;49.418;11.064;2023-05-02T14:42:58;13.10;99.90
14359;DHT22;7263;49.418;11.064;2023-05-02T14:48:02;13.40;99.90
14359;DHT22;7263;49.418;11.064;2023-05-02T14:50:32;13.40;99.90
14359;DHT22;7263;49.418;11.064;2023-05-02T14:58:08;13.50;99.90
14359;DHT22;7263;49.418;11.064;2023-05-02T15:03:11;13.50;99.90
14359;DHT22;7263;49.418;11.064;2023-05-02T15:05:40;13.60;99.90
14359;DHT22;7263;49.418;11.064;2023-05-02T15:08:07;13.70;99.90
14359;DHT22;7263;49.418;11.064;2023-05-02T15:10:37;13.60;99.90
14359;DHT22;7263;49.418;11.064;2023-05-02T15:13:07;13.60;99.90
14359;DHT22;7263;49.418;11.064;2023-05-02T15:15:35;13.70;99.90
14359;DHT22;7263;49.418;11.064;2023-05-02T15:23:02;13.90;99.90
14359;DHT22;7263;49.418;11.064;2023-05-02T15:25:33;14.10;99.90
14359;DHT22;7263;49.418;11.064;2023-05-02T15:30:34;14.10;99.90
14359;DHT22;7263;49.418;11.064;2023-05-02T15:33:06;14.10;99.90
14359;DHT22;7263;49.418;11.064;2023-05-02T15:35:33;14.20;99.90
14359;DHT22;7263;49.418;11.064;2023-05-02T15:38:07;14.30;99.90
14359;DHT22;7263;49.418;11.064;2023-05-02T15:43:02;14.60;99.90
14359;DHT22;7263;49.418;11.064;2023-05-02T15:48:04;14.80;99.90
14359;DHT22;7263;49.418;11.064;2023-05-02T15:53:03;15.00;99.90
14359;DHT22;7263;49.418;11.064;2023-05-02T15:55:36;15.00;99.90
14359;DHT22;7263;49.418;11.064;2023-05-02T15:58:03;15.00;99.90
14359;DHT22;7263;49.418;11.064;2023-05-02T16:02:57;15.00;99.90
14359;DHT22;7263;49.418;11.064;2023-05-02T16:05:25;15.10;99.90
14359;DHT22;7263;49.418;11.064;2023-05-02T16:07:55;15.10;99.90
14359;DHT22;7263;49.418;11.064;2023-05-02T16:10:22;15.10;99.90
14359;DHT22;7263;49.418;11.064;2023-05-02T16:15:18;15.10;99.90
14359;DHT22;7263;49.418;11.064;2023-05-02T16:20:17;15.10;99.90
14359;DHT22;7263;49.418;11.064;2023-05-02T16:22:50;15.10;99.90
14359;DHT22;7263;49.418;11.064;2023-05-02T16:25:21;15.10;99.90
14359;DHT22;7263;49.418;11.064;2023-05-02T16:27:51;15.00;99.90
14359;DHT22;7263;49.418;11.064;2023-05-02T16:30:23;15.00;99.90
14359;DHT22;7263;49.418;11.064;2023-05-02T16:32:53;15.00;99.90
14359;DHT22;7263;49.418;11.064;2023-05-02T16:35:20;15.00;99.90
14359;DHT22;7263;49.418;11.064;2023-05-02T16:38:05;15.00;99.90
14359;DHT22;7263;49.418;11.064;2023-05-02T16:43:05;15.10;99.90
14359;DHT22;7263;49.418;11.064;2023-05-02T16:45:33;15.10;99.90
14359;DHT22;7263;49.418;11.064;2023-05-02T16:48:03;15.10;99.90
14359;DHT22;7263;49.418;11.064;2023-05-02T16:50:32;15.10;99.90
14359;DHT22;7263;49.418;11.064;2023-05-02T16:53:00;15.00;99.90
14359;DHT22;7263;49.418;11.064;2023-05-02T16:55:32;15.00;99.90
14359;DHT22;7263;49.418;11.064;2023-05-02T16:58:03;15.00;99.90
14359;DHT22;7263;49.418;11.064;2023-05-02T17:00:30;14.90;99.90
14359;DHT22;7263;49.418;11.064;2023-05-02T17:03:00;14.90;99.90
14359;DHT22;7263;49.418;11.064;2023-05-02T17:05:29;14.90;99.90
14359;DHT22;7263;49.418;11.064;2023-05-02T17:07:57;14.90;99.90
14359;DHT22;7263;49.418;11.064;2023-05-02T17:10:25;14.80;99.90
14359;DHT22;7263;49.418;11.064;2023-05-02T17:12:57;14.80;99.90
14359;DHT22;7263;49.418;11.064;2023-05-02T17:15:26;14.80;99.90
14359;DHT22;7263;49.418;11.064;2023-05-02T17:17:53;14.80;99.90
14359;DHT22;7263;49.418;11.064;2023-05-02T17:20:20;14.80;99.90
14359;DHT22;7263;49.418;11.064;2023-05-02T17:22:50;14.70;99.90
14359;DHT22;7263;49.418;11.064;2023-05-02T17:25:19;14.70;99.90
14359;DHT22;7263;49.418;11.064;2023-05-02T17:30:22;14.50;99.90
14359;DHT22;7263;49.418;11.064;2023-05-02T17:40:14;14.40;99.90
14359;DHT22;7263;49.418;11.064;2023-05-02T17:45:10;14.30;99.90
14359;DHT22;7263;49.418;11.064;2023-05-02T17:47:38;14.30;99.90
14359;DHT22;7263;49.418;11.064;2023-05-02T17:50:06;14.30;99.90
14359;DHT22;7263;49.418;11.064;2023-05-02T17:55:01;14.20;99.90
14359;DHT22;7263;49.418;11.064;2023-05-02T17:57:34;14.10;99.90
14359;DHT22;7263;49.418;11.064;2023-05-02T18:00:01;14.00;99.90
14359;DHT22;7263;49.418;11.064;2023-05-02T18:05:00;13.90;99.90
14359;DHT22;7263;49.418;11.064;2023-05-02T18:07:34;13.80;99.90
14359;DHT22;7263;49.418;11.064;2023-05-02T18:10:09;13.70;99.90
14359;DHT22;7263;49.418;11.064;2023-05-02T18:15:06;13.70;99.90
14359;DHT22;7263;49.418;11.064;2023-05-02T18:20:09;13.60;99.90
14359;DHT22;7263;49.418;11.064;2023-05-02T18:22:36;13.60;99.90
14359;DHT22;7263;49.418;11.064;2023-05-02T18:25:04;13.50;99.90
14359;DHT22;7263;49.418;11.064;2023-05-02T18:27:31;13.50;99.90
14359;DHT22;7263;49.418;11.064;2023-05-02T18:29:58;13.50;99.90
14359;DHT22;7263;49.418;11.064;2023-05-02T18:32:36;13.50;99.90
14359;DHT22;7263;49.418;11.064;2023-05-02T18:35:09;13.40;99.90
14359;DHT22;7263;49.418;11.064;2023-05-02T18:40:08;13.30;99.90
14359;DHT22;7263;49.418;11.064;2023-05-02T18:42:38;13.20;99.90
14359;DHT22;7263;49.418;11.064;2023-05-02T18:45:11;13.10;99.90
14359;DHT22;7263;49.418;11.064;2023-05-02T18:47:41;13.00;99.90
14359;DHT22;7263;49.418;11.064;2023-05-02T18:50:10;12.90;99.90
14359;DHT22;7263;49.418;11.064;2023-05-02T18:52:37;12.80;99.90
14359;DHT22;7263;49.418;11.064;2023-05-02T18:55:05;12.70;99.90
14359;DHT22;7263;49.418;11.064;2023-05-02T19:00:01;12.50;99.90
14359;DHT22;7263;49.418;11.064;2023-05-02T19:02:30;12.40;99.90
14359;DHT22;7263;49.418;11.064;2023-05-02T19:04:59;12.30;99.90
14359;DHT22;7263;49.418;11.064;2023-05-02T19:07:28;12.20;99.90
14359;DHT22;7263;49.418;11.064;2023-05-02T19:09:55;12.20;99.90
14359;DHT22;7263;49.418;11.064;2023-05-02T19:12:25;12.10;99.90
14359;DHT22;7263;49.418;11.064;2023-05-02T19:19:55;12.00;99.90
14359;DHT22;7263;49.418;11.064;2023-05-02T19:22:25;12.00;99.90
14359;DHT22;7263;49.418;11.064;2023-05-02T19:24:57;11.90;99.90
14359;DHT22;7263;49.418;11.064;2023-05-02T19:27:25;11.90;99.90
14359;DHT22;7263;49.418;11.064;2023-05-02T19:29:55;11.90;99.90
14359;DHT22;7263;49.418;11.064;2023-05-02T19:34:53;11.80;99.90
14359;DHT22;7263;49.418;11.064;2023-05-02T19:40:00;11.70;99.90
14359;DHT22;7263;49.418;11.064;2023-05-02T19:45:02;11.70;99.90
14359;DHT22;7263;49.418;11.064;2023-05-02T19:50:00;11.70;99.90
14359;DHT22;7263;49.418;11.064;2023-05-02T19:52:27;11.60;99.90
14359;DHT22;7263;49.418;11.064;2023-05-02T19:54:54;11.60;99.90
14359;DHT22;7263;49.418;11.064;2023-05-02T19:57:22;11.60;99.90
14359;DHT22;7263;49.418;11.064;2023-05-02T19:59:52;11.70;99.90
14359;DHT22;7263;49.418;11.064;2023-05-02T20:02:29;11.60;99.90
14359;DHT22;7263;49.418;11.064;2023-05-02T20:05:01;11.60;99.90
14359;DHT22;7263;49.418;11.064;2023-05-02T20:09:58;11.70;99.90
14359;DHT22;7263;49.418;11.064;2023-05-02T20:12:26;11.70;99.90
14359;DHT22;7263;49.418;11.064;2023-05-02T20:14:56;11.70;99.90
14359;DHT22;7263;49.418;11.064;2023-05-02T20:17:23;11.70;99.90
14359;DHT22;7263;49.418;11.064;2023-05-02T20:19:55;11.70;99.90
14359;DHT22;7263;49.418;11.064;2023-05-02T20:22:22;11.70;99.90
14359;DHT22;7263;49.418;11.064;2023-05-02T20:24:55;11.70;99.90
14359;DHT22;7263;49.418;11.064;2023-05-02T20:27:26;11.70;99.90
14359;DHT22;7263;49.418;11.064;2023-05-02T20:29:53;11.70;99.90
14359;DHT22;7263;49.418;11.064;2023-05-02T20:32:22;11.70;99.90
14359;DHT22;7263;49.418;11.064;2023-05-02T20:34:57;11.60;99.90
14359;DHT22;7263;49.418;11.064;2023-05-02T20:37:29;11.60;99.90
14359;DHT22;7263;49.418;11.064;2023-05-02T20:39:59;11.60;99.90
14359;DHT22;7263;49.418;11.064;2023-05-02T20:42:28;11.50;99.90
14359;DHT22;7263;49.418;11.064;2023-05-02T20:45:04;11.50;99.90
14359;DHT22;7263;49.418;11.064;2023-05-02T20:47:36;11.40;99.90
14359;DHT22;7263;49.418;11.064;2023-05-02T20:50:06;11.50;99.90
14359;DHT22;7263;49.418;11.064;2023-05-02T20:52:37;11.40;99.90
14359;DHT22;7263;49.418;11.064;2023-05-02T20:55:04;11.40;99.90
14359;DHT22;7263;49.418;11.064;2023-05-02T20:57:44;11.40;99.90
14359;DHT22;7263;49.418;11.064;2023-05-02T21:00:11;11.30;99.90
14359;DHT22;7263;49.418;11.064;2023-05-02T21:02:40;11.20;99.90
14359;DHT22;7263;49.418;11.064;2023-05-02T21:05:10;11.10;99.90
14359;DHT22;7263;49.418;11.064;2023-05-02T21:07:39;11.10;99.90
14359;DHT22;7263;49.418;11.064;2023-05-02T21:10:12;11.00;99.90
14359;DHT22;7263;49.418;11.064;2023-05-02T21:12:40;10.90;99.90
14359;DHT22;7263;49.418;11.064;2023-05-02T21:15:11;10.90;99.90
14359;DHT22;7263;49.418;11.064;2023-05-02T21:17:42;10.90;99.90
14359;DHT22;7263;49.418;11.064;2023-05-02T21:20:11;10.90;99.90
14359;DHT22;7263;49.418;11.064;2023-05-02T21:22:56;10.90;99.90
14359;DHT22;7263;49.418;11.064;2023-05-02T21:25:23;10.90;99.90
14359;DHT22;7263;49.418;11.064;2023-05-02T21:27:51;10.80;99.90